sensor_id;sensor_type;location;lat;lon;timestamp;P1;durP1;ratioP1;P2;durP2;ratioP2
5967;SDS011;3010;51.028;4.170;2023-03-14T00:00:06;2.50;;;1.47;;
5967;SDS011;3010;51.028;4.170;2023-03-14T00:02:32;5.97;;;2.30;;
5967;SDS011;3010;51.028;4.170;2023-03-14T00:04:59;3.27;;;1.87;;
5967;SDS011;3010;51.028;4.170;2023-03-14T00:07:25;5.30;;;1.83;;
5967;SDS011;3010;51.028;4.170;2023-03-14T00:09:52;5.47;;;2.20;;
5967;SDS011;3010;51.028;4.170;2023-03-14T00:12:19;3.00;;;1.53;;
5967;SDS011;3010;51.028;4.170;2023-03-14T00:14:45;3.60;;;1.90;;
5967;SDS011;3010;51.028;4.170;2023-03-14T00:17:12;5.83;;;1.90;;
5967;SDS011;3010;51.028;4.170;2023-03-14T00:19:38;6.57;;;1.90;;
5967;SDS011;3010;51.028;4.170;2023-03-14T00:22:05;3.53;;;1.77;;
5967;SDS011;3010;51.028;4.170;2023-03-14T00:24:31;4.47;;;2.03;;
5967;SDS011;3010;51.028;4.170;2023-03-14T00:26:58;4.30;;;2.60;;
5967;SDS011;3010;51.028;4.170;2023-03-14T00:29:25;7.73;;;2.10;;
5967;SDS011;3010;51.028;4.170;2023-03-14T00:31:51;10.83;;;2.83;;
5967;SDS011;3010;51.028;4.170;2023-03-14T00:34:18;6.60;;;2.17;;
5967;SDS011;3010;51.028;4.170;2023-03-14T00:36:44;4.10;;;2.17;;
5967;SDS011;3010;51.028;4.170;2023-03-14T00:39:11;5.73;;;2.27;;
5967;SDS011;3010;51.028;4.170;2023-03-14T00:41:37;6.07;;;2.00;;
5967;SDS011;3010;51.028;4.170;2023-03-14T00:44:04;6.47;;;2.43;;
5967;SDS011;3010;51.028;4.170;2023-03-14T00:46:31;9.73;;;2.60;;
5967;SDS011;3010;51.028;4.170;2023-03-14T00:48:57;5.97;;;2.33;;
5967;SDS011;3010;51.028;4.170;2023-03-14T00:51:24;10.17;;;2.70;;
5967;SDS011;3010;51.028;4.170;2023-03-14T00:53:50;8.55;;;2.95;;
5967;SDS011;3010;51.028;4.170;2023-03-14T00:56:17;11.33;;;2.80;;
5967;SDS011;3010;51.028;4.170;2023-03-14T00:58:44;8.23;;;2.80;;
5967;SDS011;3010;51.028;4.170;2023-03-14T01:01:14;8.23;;;3.03;;
5967;SDS011;3010;51.028;4.170;2023-03-14T01:03:39;9.68;;;2.87;;
5967;SDS011;3010;51.028;4.170;2023-03-14T01:06:09;9.40;;;3.15;;
5967;SDS011;3010;51.028;4.170;2023-03-14T01:08:36;10.27;;;2.53;;
5967;SDS011;3010;51.028;4.170;2023-03-14T01:11:09;3.27;;;2.10;;
5967;SDS011;3010;51.028;4.170;2023-03-14T01:13:35;12.50;;;3.23;;
5967;SDS011;3010;51.028;4.170;2023-03-14T01:16:02;10.70;;;2.93;;
5967;SDS011;3010;51.028;4.170;2023-03-14T01:18:28;5.37;;;2.57;;
5967;SDS011;3010;51.028;4.170;2023-03-14T01:20:54;6.13;;;2.30;;
5967;SDS011;3010;51.028;4.170;2023-03-14T01:23:21;7.43;;;2.63;;
5967;SDS011;3010;51.028;4.170;2023-03-14T01:25:48;6.70;;;2.60;;
5967;SDS011;3010;51.028;4.170;2023-03-14T01:28:14;8.13;;;2.97;;
5967;SDS011;3010;51.028;4.170;2023-03-14T01:30:41;5.67;;;2.50;;
5967;SDS011;3010;51.028;4.170;2023-03-14T01:33:07;11.27;;;3.33;;
5967;SDS011;3010;51.028;4.170;2023-03-14T01:35:34;8.93;;;3.03;;
5967;SDS011;3010;51.028;4.170;2023-03-14T01:38:00;7.53;;;2.47;;
5967;SDS011;3010;51.028;4.170;2023-03-14T01:40:27;6.43;;;2.00;;
5967;SDS011;3010;51.028;4.170;2023-03-14T01:42:54;8.80;;;2.73;;
5967;SDS011;3010;51.028;4.170;2023-03-14T01:48:27;5.80;;;2.93;;
5967;SDS011;3010;51.028;4.170;2023-03-14T01:50:53;6.87;;;2.20;;
5967;SDS011;3010;51.028;4.170;2023-03-14T01:53:20;7.13;;;2.50;;
5967;SDS011;3010;51.028;4.170;2023-03-14T01:55:47;6.77;;;2.60;;
5967;SDS011;3010;51.028;4.170;2023-03-14T01:58:15;9.85;;;3.05;;
5967;SDS011;3010;51.028;4.170;2023-03-14T02:00:42;4.40;;;2.30;;
5967;SDS011;3010;51.028;4.170;2023-03-14T02:03:10;9.27;;;2.50;;
5967;SDS011;3010;51.028;4.170;2023-03-14T02:05:36;5.43;;;2.50;;
5967;SDS011;3010;51.028;4.170;2023-03-14T02:08:02;6.33;;;2.27;;
5967;SDS011;3010;51.028;4.170;2023-03-14T02:10:30;7.07;;;1.80;;
5967;SDS011;3010;51.028;4.170;2023-03-14T02:12:55;7.67;;;2.13;;
5967;SDS011;3010;51.028;4.170;2023-03-14T02:15:21;8.93;;;2.30;;
5967;SDS011;3010;51.028;4.170;2023-03-14T02:17:48;8.75;;;2.55;;
5967;SDS011;3010;51.028;4.170;2023-03-14T02:23:03;6.12;;;2.62;;
5967;SDS011;3010;51.028;4.170;2023-03-14T02:25:40;4.78;;;2.28;;
5967;SDS011;3010;51.028;4.170;2023-03-14T02:28:05;5.30;;;1.80;;
5967;SDS011;3010;51.028;4.170;2023-03-14T02:30:32;4.73;;;2.30;;
5967;SDS011;3010;51.028;4.170;2023-03-14T02:32:59;4.20;;;2.13;;
5967;SDS011;3010;51.028;4.170;2023-03-14T02:35:27;2.63;;;1.60;;
5967;SDS011;3010;51.028;4.170;2023-03-14T02:37:59;7.37;;;1.90;;
5967;SDS011;3010;51.028;4.170;2023-03-14T02:40:23;3.80;;;1.53;;
5967;SDS011;3010;51.028;4.170;2023-03-14T02:42:50;3.37;;;1.40;;
5967;SDS011;3010;51.028;4.170;2023-03-14T02:47:44;3.80;;;1.60;;
5967;SDS011;3010;51.028;4.170;2023-03-14T02:50:12;3.57;;;1.60;;
5967;SDS011;3010;51.028;4.170;2023-03-14T02:52:36;5.03;;;1.83;;
5967;SDS011;3010;51.028;4.170;2023-03-14T02:55:03;6.13;;;2.00;;
5967;SDS011;3010;51.028;4.170;2023-03-14T02:57:30;5.17;;;2.50;;
5967;SDS011;3010;51.028;4.170;2023-03-14T02:59:59;4.20;;;2.07;;
5967;SDS011;3010;51.028;4.170;2023-03-14T03:02:26;2.43;;;1.87;;
5967;SDS011;3010;51.028;4.170;2023-03-14T03:04:52;3.23;;;2.00;;
5967;SDS011;3010;51.028;4.170;2023-03-14T03:07:19;8.73;;;3.03;;
5967;SDS011;3010;51.028;4.170;2023-03-14T03:09:45;9.98;;;3.35;;
5967;SDS011;3010;51.028;4.170;2023-03-14T03:12:12;8.90;;;3.20;;
5967;SDS011;3010;51.028;4.170;2023-03-14T03:14:38;4.80;;;3.20;;
5967;SDS011;3010;51.028;4.170;2023-03-14T03:17:05;7.43;;;2.77;;
5967;SDS011;3010;51.028;4.170;2023-03-14T03:19:33;9.13;;;3.43;;
5967;SDS011;3010;51.028;4.170;2023-03-14T03:21:58;4.10;;;3.07;;
5967;SDS011;3010;51.028;4.170;2023-03-14T03:24:25;11.60;;;3.77;;
5967;SDS011;3010;51.028;4.170;2023-03-14T03:26:51;11.33;;;3.17;;
5967;SDS011;3010;51.028;4.170;2023-03-14T03:29:18;6.07;;;2.93;;
5967;SDS011;3010;51.028;4.170;2023-03-14T03:31:44;8.70;;;2.87;;
5967;SDS011;3010;51.028;4.170;2023-03-14T03:34:11;6.73;;;3.30;;
5967;SDS011;3010;51.028;4.170;2023-03-14T03:36:38;10.63;;;3.20;;
5967;SDS011;3010;51.028;4.170;2023-03-14T03:39:04;14.50;;;3.90;;
5967;SDS011;3010;51.028;4.170;2023-03-14T03:41:31;12.23;;;4.10;;
5967;SDS011;3010;51.028;4.170;2023-03-14T03:43:57;8.77;;;3.33;;
5967;SDS011;3010;51.028;4.170;2023-03-14T03:46:24;5.57;;;3.53;;
5967;SDS011;3010;51.028;4.170;2023-03-14T03:48:54;10.17;;;4.23;;
5967;SDS011;3010;51.028;4.170;2023-03-14T03:51:23;8.80;;;3.70;;
5967;SDS011;3010;51.028;4.170;2023-03-14T03:53:49;7.07;;;3.33;;
5967;SDS011;3010;51.028;4.170;2023-03-14T03:56:16;9.43;;;4.30;;
5967;SDS011;3010;51.028;4.170;2023-03-14T03:58:42;10.52;;;4.60;;
5967;SDS011;3010;51.028;4.170;2023-03-14T04:01:09;14.13;;;4.93;;
5967;SDS011;3010;51.028;4.170;2023-03-14T04:03:36;7.47;;;3.70;;
5967;SDS011;3010;51.028;4.170;2023-03-14T04:06:05;10.57;;;4.47;;
5967;SDS011;3010;51.028;4.170;2023-03-14T04:08:29;10.10;;;4.62;;
5967;SDS011;3010;51.028;4.170;2023-03-14T04:10:59;8.97;;;3.83;;
5967;SDS011;3010;51.028;4.170;2023-03-14T04:13:26;6.80;;;4.00;;
5967;SDS011;3010;51.028;4.170;2023-03-14T04:15:52;9.18;;;5.05;;
5967;SDS011;3010;51.028;4.170;2023-03-14T04:18:18;11.80;;;4.07;;
5967;SDS011;3010;51.028;4.170;2023-03-14T04:20:45;10.13;;;4.27;;
5967;SDS011;3010;51.028;4.170;2023-03-14T04:23:11;10.40;;;4.40;;
5967;SDS011;3010;51.028;4.170;2023-03-14T04:25:38;9.27;;;4.20;;
5967;SDS011;3010;51.028;4.170;2023-03-14T04:28:05;9.17;;;4.57;;
5967;SDS011;3010;51.028;4.170;2023-03-14T04:30:31;13.30;;;4.00;;
5967;SDS011;3010;51.028;4.170;2023-03-14T04:32:58;6.30;;;3.67;;
5967;SDS011;3010;51.028;4.170;2023-03-14T04:35:24;8.07;;;4.00;;
5967;SDS011;3010;51.028;4.170;2023-03-14T04:37:51;10.55;;;5.40;;
5967;SDS011;3010;51.028;4.170;2023-03-14T04:40:17;8.30;;;4.10;;
5967;SDS011;3010;51.028;4.170;2023-03-14T04:42:44;6.97;;;4.27;;
5967;SDS011;3010;51.028;4.170;2023-03-14T04:45:11;7.07;;;4.40;;
5967;SDS011;3010;51.028;4.170;2023-03-14T04:47:37;6.50;;;4.00;;
5967;SDS011;3010;51.028;4.170;2023-03-14T04:50:04;5.60;;;4.00;;
5967;SDS011;3010;51.028;4.170;2023-03-14T04:52:30;6.53;;;3.90;;
5967;SDS011;3010;51.028;4.170;2023-03-14T04:54:57;6.73;;;4.00;;
5967;SDS011;3010;51.028;4.170;2023-03-14T04:57:24;9.07;;;4.37;;
5967;SDS011;3010;51.028;4.170;2023-03-14T04:59:50;7.57;;;4.10;;
5967;SDS011;3010;51.028;4.170;2023-03-14T05:02:17;8.00;;;4.23;;
5967;SDS011;3010;51.028;4.170;2023-03-14T05:04:43;7.03;;;4.20;;
5967;SDS011;3010;51.028;4.170;2023-03-14T05:07:10;6.57;;;4.93;;
5967;SDS011;3010;51.028;4.170;2023-03-14T05:09:37;10.40;;;4.77;;
5967;SDS011;3010;51.028;4.170;2023-03-14T05:12:03;7.47;;;4.60;;
5967;SDS011;3010;51.028;4.170;2023-03-14T05:14:30;4.93;;;4.43;;
5967;SDS011;3010;51.028;4.170;2023-03-14T05:16:56;5.20;;;4.70;;
5967;SDS011;3010;51.028;4.170;2023-03-14T05:19:23;6.07;;;4.70;;
5967;SDS011;3010;51.028;4.170;2023-03-14T05:21:49;6.10;;;4.70;;
5967;SDS011;3010;51.028;4.170;2023-03-14T05:24:16;7.33;;;4.97;;
5967;SDS011;3010;51.028;4.170;2023-03-14T05:26:43;5.93;;;4.73;;
5967;SDS011;3010;51.028;4.170;2023-03-14T05:29:09;5.57;;;5.07;;
5967;SDS011;3010;51.028;4.170;2023-03-14T05:31:36;9.10;;;4.60;;
5967;SDS011;3010;51.028;4.170;2023-03-14T05:34:02;5.53;;;4.70;;
5967;SDS011;3010;51.028;4.170;2023-03-14T05:36:29;11.03;;;6.70;;
5967;SDS011;3010;51.028;4.170;2023-03-14T05:38:55;8.02;;;5.60;;
5967;SDS011;3010;51.028;4.170;2023-03-14T05:41:22;7.95;;;5.43;;
5967;SDS011;3010;51.028;4.170;2023-03-14T05:43:49;6.80;;;4.87;;
5967;SDS011;3010;51.028;4.170;2023-03-14T05:46:15;7.20;;;5.60;;
5967;SDS011;3010;51.028;4.170;2023-03-14T05:48:42;5.17;;;4.70;;
5967;SDS011;3010;51.028;4.170;2023-03-14T05:51:08;7.27;;;4.90;;
5967;SDS011;3010;51.028;4.170;2023-03-14T05:53:35;5.60;;;4.57;;
5967;SDS011;3010;51.028;4.170;2023-03-14T05:56:02;7.85;;;4.70;;
5967;SDS011;3010;51.028;4.170;2023-03-14T05:58:28;4.40;;;4.10;;
5967;SDS011;3010;51.028;4.170;2023-03-14T06:00:55;4.50;;;3.77;;
5967;SDS011;3010;51.028;4.170;2023-03-14T06:03:21;6.47;;;4.63;;
5967;SDS011;3010;51.028;4.170;2023-03-14T06:05:51;5.72;;;4.85;;
5967;SDS011;3010;51.028;4.170;2023-03-14T06:08:18;4.87;;;4.37;;
5967;SDS011;3010;51.028;4.170;2023-03-14T06:10:44;4.70;;;3.70;;
5967;SDS011;3010;51.028;4.170;2023-03-14T06:13:11;4.90;;;3.67;;
5967;SDS011;3010;51.028;4.170;2023-03-14T06:15:37;5.43;;;3.80;;
5967;SDS011;3010;51.028;4.170;2023-03-14T06:18:04;5.37;;;4.00;;
5967;SDS011;3010;51.028;4.170;2023-03-14T06:20:30;4.73;;;4.13;;
5967;SDS011;3010;51.028;4.170;2023-03-14T06:22:57;4.53;;;4.23;;
5967;SDS011;3010;51.028;4.170;2023-03-14T06:25:24;10.93;;;8.30;;
5967;SDS011;3010;51.028;4.170;2023-03-14T06:27:50;11.67;;;6.43;;
5967;SDS011;3010;51.028;4.170;2023-03-14T06:30:17;3.87;;;3.60;;
5967;SDS011;3010;51.028;4.170;2023-03-14T06:32:43;1.87;;;1.83;;
5967;SDS011;3010;51.028;4.170;2023-03-14T06:35:10;1.77;;;1.70;;
5967;SDS011;3010;51.028;4.170;2023-03-14T06:37:37;4.23;;;1.97;;
5967;SDS011;3010;51.028;4.170;2023-03-14T06:40:03;2.10;;;1.97;;
5967;SDS011;3010;51.028;4.170;2023-03-14T06:42:30;3.47;;;2.20;;
5967;SDS011;3010;51.028;4.170;2023-03-14T06:44:56;2.10;;;2.00;;
5967;SDS011;3010;51.028;4.170;2023-03-14T06:47:23;3.27;;;2.83;;
5967;SDS011;3010;51.028;4.170;2023-03-14T06:49:49;2.53;;;2.43;;
5967;SDS011;3010;51.028;4.170;2023-03-14T06:52:16;3.67;;;3.07;;
5967;SDS011;3010;51.028;4.170;2023-03-14T06:54:43;7.10;;;4.18;;
5967;SDS011;3010;51.028;4.170;2023-03-14T06:57:09;5.50;;;5.00;;
5967;SDS011;3010;51.028;4.170;2023-03-14T06:59:36;6.37;;;5.45;;
5967;SDS011;3010;51.028;4.170;2023-03-14T07:02:02;15.00;;;8.63;;
5967;SDS011;3010;51.028;4.170;2023-03-14T07:04:29;13.53;;;7.47;;
5967;SDS011;3010;51.028;4.170;2023-03-14T07:06:56;14.03;;;8.07;;
5967;SDS011;3010;51.028;4.170;2023-03-14T07:09:22;12.27;;;7.82;;
5967;SDS011;3010;51.028;4.170;2023-03-14T07:11:49;9.10;;;6.50;;
5967;SDS011;3010;51.028;4.170;2023-03-14T07:14:15;6.63;;;5.20;;
5967;SDS011;3010;51.028;4.170;2023-03-14T07:16:42;8.37;;;5.07;;
5967;SDS011;3010;51.028;4.170;2023-03-14T07:19:08;10.07;;;4.80;;
5967;SDS011;3010;51.028;4.170;2023-03-14T07:21:35;7.03;;;4.87;;
5967;SDS011;3010;51.028;4.170;2023-03-14T07:24:02;7.75;;;5.32;;
5967;SDS011;3010;51.028;4.170;2023-03-14T07:26:28;11.17;;;5.33;;
5967;SDS011;3010;51.028;4.170;2023-03-14T07:28:55;8.10;;;6.07;;
5967;SDS011;3010;51.028;4.170;2023-03-14T07:31:21;5.93;;;5.00;;
5967;SDS011;3010;51.028;4.170;2023-03-14T07:33:48;8.88;;;6.32;;
5967;SDS011;3010;51.028;4.170;2023-03-14T07:36:15;5.53;;;4.87;;
5967;SDS011;3010;51.028;4.170;2023-03-14T07:38:41;10.87;;;5.33;;
5967;SDS011;3010;51.028;4.170;2023-03-14T07:41:08;7.97;;;5.13;;
5967;SDS011;3010;51.028;4.170;2023-03-14T07:43:34;11.40;;;4.37;;
5967;SDS011;3010;51.028;4.170;2023-03-14T07:46:01;7.50;;;5.23;;
5967;SDS011;3010;51.028;4.170;2023-03-14T07:48:28;10.83;;;4.87;;
5967;SDS011;3010;51.028;4.170;2023-03-14T07:50:54;7.87;;;5.37;;
5967;SDS011;3010;51.028;4.170;2023-03-14T07:53:21;10.03;;;5.70;;
5967;SDS011;3010;51.028;4.170;2023-03-14T07:55:47;8.60;;;5.60;;
5967;SDS011;3010;51.028;4.170;2023-03-14T07:58:14;13.10;;;6.87;;
5967;SDS011;3010;51.028;4.170;2023-03-14T08:00:40;12.23;;;6.37;;
5967;SDS011;3010;51.028;4.170;2023-03-14T08:03:07;12.63;;;5.93;;
5967;SDS011;3010;51.028;4.170;2023-03-14T08:05:34;6.07;;;5.13;;
5967;SDS011;3010;51.028;4.170;2023-03-14T08:08:00;8.73;;;5.70;;
5967;SDS011;3010;51.028;4.170;2023-03-14T08:10:27;6.30;;;4.73;;
5967;SDS011;3010;51.028;4.170;2023-03-14T08:12:54;5.93;;;4.93;;
5967;SDS011;3010;51.028;4.170;2023-03-14T08:15:20;8.00;;;5.90;;
5967;SDS011;3010;51.028;4.170;2023-03-14T08:17:47;7.55;;;6.07;;
5967;SDS011;3010;51.028;4.170;2023-03-14T08:20:13;7.90;;;6.07;;
5967;SDS011;3010;51.028;4.170;2023-03-14T08:22:40;6.07;;;5.27;;
5967;SDS011;3010;51.028;4.170;2023-03-14T08:25:06;7.47;;;5.30;;
5967;SDS011;3010;51.028;4.170;2023-03-14T08:27:33;7.17;;;4.70;;
5967;SDS011;3010;51.028;4.170;2023-03-14T08:30:00;8.82;;;6.45;;
5967;SDS011;3010;51.028;4.170;2023-03-14T08:32:26;10.70;;;6.50;;
5967;SDS011;3010;51.028;4.170;2023-03-14T08:34:53;10.50;;;7.15;;
5967;SDS011;3010;51.028;4.170;2023-03-14T08:37:19;6.70;;;4.83;;
5967;SDS011;3010;51.028;4.170;2023-03-14T08:39:46;8.63;;;5.20;;
5967;SDS011;3010;51.028;4.170;2023-03-14T08:42:12;6.37;;;4.03;;
5967;SDS011;3010;51.028;4.170;2023-03-14T08:44:39;6.03;;;3.53;;
5967;SDS011;3010;51.028;4.170;2023-03-14T08:47:06;7.87;;;3.20;;
5967;SDS011;3010;51.028;4.170;2023-03-14T08:49:32;5.30;;;3.87;;
5967;SDS011;3010;51.028;4.170;2023-03-14T08:52:00;8.47;;;3.43;;
5967;SDS011;3010;51.028;4.170;2023-03-14T08:54:25;4.60;;;3.77;;
5967;SDS011;3010;51.028;4.170;2023-03-14T08:56:52;4.77;;;3.53;;
5967;SDS011;3010;51.028;4.170;2023-03-14T08:59:19;5.93;;;5.10;;
5967;SDS011;3010;51.028;4.170;2023-03-14T09:01:45;5.83;;;4.63;;
5967;SDS011;3010;51.028;4.170;2023-03-14T09:04:12;5.70;;;4.03;;
5967;SDS011;3010;51.028;4.170;2023-03-14T09:06:38;4.43;;;4.03;;
5967;SDS011;3010;51.028;4.170;2023-03-14T09:09:05;5.23;;;4.37;;
5967;SDS011;3010;51.028;4.170;2023-03-14T09:11:32;5.57;;;4.93;;
5967;SDS011;3010;51.028;4.170;2023-03-14T09:13:58;5.93;;;4.53;;
5967;SDS011;3010;51.028;4.170;2023-03-14T09:16:25;6.27;;;5.43;;
5967;SDS011;3010;51.028;4.170;2023-03-14T09:18:51;8.27;;;5.93;;
5967;SDS011;3010;51.028;4.170;2023-03-14T09:21:18;9.50;;;7.20;;
5967;SDS011;3010;51.028;4.170;2023-03-14T09:23:45;12.10;;;8.55;;
5967;SDS011;3010;51.028;4.170;2023-03-14T09:26:11;11.63;;;8.38;;
5967;SDS011;3010;51.028;4.170;2023-03-14T09:28:38;7.53;;;6.23;;
5967;SDS011;3010;51.028;4.170;2023-03-14T09:31:05;7.23;;;5.30;;
5967;SDS011;3010;51.028;4.170;2023-03-14T09:33:31;8.17;;;5.90;;
5967;SDS011;3010;51.028;4.170;2023-03-14T09:35:58;7.37;;;6.65;;
5967;SDS011;3010;51.028;4.170;2023-03-14T09:38:24;6.53;;;5.90;;
5967;SDS011;3010;51.028;4.170;2023-03-14T09:40:51;8.63;;;6.00;;
5967;SDS011;3010;51.028;4.170;2023-03-14T09:43:17;7.90;;;5.73;;
5967;SDS011;3010;51.028;4.170;2023-03-14T09:45:44;8.05;;;6.68;;
5967;SDS011;3010;51.028;4.170;2023-03-14T09:48:12;8.90;;;5.10;;
5967;SDS011;3010;51.028;4.170;2023-03-14T09:50:47;10.40;;;5.23;;
5967;SDS011;3010;51.028;4.170;2023-03-14T09:53:14;12.43;;;6.50;;
5967;SDS011;3010;51.028;4.170;2023-03-14T09:55:39;9.13;;;5.20;;
5967;SDS011;3010;51.028;4.170;2023-03-14T09:58:09;10.27;;;5.23;;
5967;SDS011;3010;51.028;4.170;2023-03-14T10:00:32;7.83;;;4.67;;
5967;SDS011;3010;51.028;4.170;2023-03-14T10:05:38;5.80;;;3.50;;
5967;SDS011;3010;51.028;4.170;2023-03-14T10:08:04;4.87;;;3.63;;
5967;SDS011;3010;51.028;4.170;2023-03-14T10:10:31;2.90;;;2.37;;
5967;SDS011;3010;51.028;4.170;2023-03-14T10:12:58;2.23;;;2.03;;
5967;SDS011;3010;51.028;4.170;2023-03-14T10:15:30;3.20;;;1.97;;
5967;SDS011;3010;51.028;4.170;2023-03-14T10:17:58;2.40;;;2.20;;
5967;SDS011;3010;51.028;4.170;2023-03-14T10:20:27;2.30;;;2.10;;
5967;SDS011;3010;51.028;4.170;2023-03-14T10:22:52;1.97;;;1.97;;
5967;SDS011;3010;51.028;4.170;2023-03-14T10:25:28;3.50;;;2.20;;
5967;SDS011;3010;51.028;4.170;2023-03-14T10:27:54;2.30;;;2.20;;
5967;SDS011;3010;51.028;4.170;2023-03-14T10:30:38;3.13;;;2.60;;
5967;SDS011;3010;51.028;4.170;2023-03-14T10:33:09;2.37;;;2.20;;
5967;SDS011;3010;51.028;4.170;2023-03-14T10:35:35;3.57;;;1.90;;
5967;SDS011;3010;51.028;4.170;2023-03-14T10:38:02;1.73;;;1.63;;
5967;SDS011;3010;51.028;4.170;2023-03-14T10:40:30;2.37;;;1.97;;
5967;SDS011;3010;51.028;4.170;2023-03-14T10:42:54;2.87;;;2.07;;
5967;SDS011;3010;51.028;4.170;2023-03-14T10:48:06;1.77;;;1.70;;
5967;SDS011;3010;51.028;4.170;2023-03-14T10:50:30;3.10;;;2.27;;
5967;SDS011;3010;51.028;4.170;2023-03-14T10:52:56;6.27;;;2.13;;
5967;SDS011;3010;51.028;4.170;2023-03-14T10:55:23;2.33;;;2.10;;
5967;SDS011;3010;51.028;4.170;2023-03-14T10:57:49;3.57;;;2.53;;
5967;SDS011;3010;51.028;4.170;2023-03-14T11:00:20;3.73;;;2.43;;
5967;SDS011;3010;51.028;4.170;2023-03-14T11:03:03;2.60;;;2.37;;
5967;SDS011;3010;51.028;4.170;2023-03-14T11:05:31;2.50;;;2.30;;
5967;SDS011;3010;51.028;4.170;2023-03-14T11:07:59;3.57;;;2.87;;
5967;SDS011;3010;51.028;4.170;2023-03-14T11:21:20;5.03;;;3.27;;
5967;SDS011;3010;51.028;4.170;2023-03-14T11:24:06;7.57;;;4.43;;
5967;SDS011;3010;51.028;4.170;2023-03-14T11:29:20;7.47;;;4.00;;
5967;SDS011;3010;51.028;4.170;2023-03-14T11:31:46;8.10;;;3.70;;
5967;SDS011;3010;51.028;4.170;2023-03-14T11:36:59;7.87;;;4.67;;
5967;SDS011;3010;51.028;4.170;2023-03-14T11:39:29;7.17;;;4.87;;
5967;SDS011;3010;51.028;4.170;2023-03-14T11:41:53;8.60;;;4.53;;
5967;SDS011;3010;51.028;4.170;2023-03-14T11:44:20;7.53;;;4.23;;
5967;SDS011;3010;51.028;4.170;2023-03-14T11:46:50;8.47;;;3.90;;
5967;SDS011;3010;51.028;4.170;2023-03-14T11:52:20;11.57;;;6.10;;
5967;SDS011;3010;51.028;4.170;2023-03-14T11:54:47;11.17;;;6.23;;
5967;SDS011;3010;51.028;4.170;2023-03-14T11:57:18;9.60;;;6.27;;
5967;SDS011;3010;51.028;4.170;2023-03-14T12:10:55;17.67;;;4.40;;
5967;SDS011;3010;51.028;4.170;2023-03-14T12:13:07;18.33;;;4.10;;
5967;SDS011;3010;51.028;4.170;2023-03-14T12:15:31;21.83;;;3.80;;
5967;SDS011;3010;51.028;4.170;2023-03-14T12:17:58;16.70;;;4.33;;
5967;SDS011;3010;51.028;4.170;2023-03-14T12:20:25;15.73;;;3.60;;
5967;SDS011;3010;51.028;4.170;2023-03-14T12:22:55;14.10;;;4.10;;
5967;SDS011;3010;51.028;4.170;2023-03-14T12:25:24;13.63;;;3.70;;
5967;SDS011;3010;51.028;4.170;2023-03-14T12:30:29;13.57;;;3.33;;
5967;SDS011;3010;51.028;4.170;2023-03-14T12:35:36;12.97;;;2.90;;
5967;SDS011;3010;51.028;4.170;2023-03-14T12:38:08;11.60;;;2.97;;
5967;SDS011;3010;51.028;4.170;2023-03-14T12:40:32;16.53;;;3.50;;
5967;SDS011;3010;51.028;4.170;2023-03-14T12:42:59;13.50;;;3.33;;
5967;SDS011;3010;51.028;4.170;2023-03-14T12:45:27;9.67;;;4.13;;
5967;SDS011;3010;51.028;4.170;2023-03-14T12:50:20;14.10;;;4.10;;
5967;SDS011;3010;51.028;4.170;2023-03-14T12:53:02;11.17;;;3.50;;
5967;SDS011;3010;51.028;4.170;2023-03-14T12:55:49;17.42;;;4.35;;
5967;SDS011;3010;51.028;4.170;2023-03-14T13:00:43;15.93;;;4.40;;
5967;SDS011;3010;51.028;4.170;2023-03-14T13:03:17;15.18;;;4.68;;
5967;SDS011;3010;51.028;4.170;2023-03-14T13:05:50;19.20;;;4.50;;
5967;SDS011;3010;51.028;4.170;2023-03-14T13:08:06;15.60;;;4.30;;
5967;SDS011;3010;51.028;4.170;2023-03-14T13:10:39;17.13;;;3.57;;
5967;SDS011;3010;51.028;4.170;2023-03-14T13:15:41;23.45;;;5.50;;
5967;SDS011;3010;51.028;4.170;2023-03-14T13:23:42;17.53;;;3.60;;
5967;SDS011;3010;51.028;4.170;2023-03-14T13:26:13;11.90;;;4.10;;
5967;SDS011;3010;51.028;4.170;2023-03-14T13:28:37;16.57;;;3.43;;
5967;SDS011;3010;51.028;4.170;2023-03-14T13:31:04;13.90;;;2.60;;
5967;SDS011;3010;51.028;4.170;2023-03-14T13:33:30;16.13;;;3.40;;
5967;SDS011;3010;51.028;4.170;2023-03-14T13:35:58;17.83;;;3.77;;
5967;SDS011;3010;51.028;4.170;2023-03-14T13:38:27;8.87;;;2.60;;
5967;SDS011;3010;51.028;4.170;2023-03-14T13:40:54;7.83;;;2.70;;
5967;SDS011;3010;51.028;4.170;2023-03-14T13:43:21;9.53;;;3.43;;
5967;SDS011;3010;51.028;4.170;2023-03-14T13:46:06;7.93;;;3.00;;
5967;SDS011;3010;51.028;4.170;2023-03-14T13:48:40;12.60;;;2.70;;
5967;SDS011;3010;51.028;4.170;2023-03-14T13:51:04;11.70;;;3.20;;
5967;SDS011;3010;51.028;4.170;2023-03-14T13:53:30;9.37;;;3.13;;
5967;SDS011;3010;51.028;4.170;2023-03-14T13:55:56;7.77;;;2.57;;
5967;SDS011;3010;51.028;4.170;2023-03-14T13:58:24;7.47;;;2.67;;
5967;SDS011;3010;51.028;4.170;2023-03-14T14:01:02;6.07;;;2.23;;
5967;SDS011;3010;51.028;4.170;2023-03-14T14:03:28;10.83;;;3.20;;
5967;SDS011;3010;51.028;4.170;2023-03-14T14:05:55;8.10;;;2.63;;
5967;SDS011;3010;51.028;4.170;2023-03-14T14:08:21;13.45;;;7.30;;
5967;SDS011;3010;51.028;4.170;2023-03-14T14:10:47;84.60;;;38.53;;
5967;SDS011;3010;51.028;4.170;2023-03-14T14:13:14;48.45;;;24.42;;
5967;SDS011;3010;51.028;4.170;2023-03-14T14:15:44;95.20;;;40.53;;
5967;SDS011;3010;51.028;4.170;2023-03-14T14:18:11;43.57;;;21.77;;
5967;SDS011;3010;51.028;4.170;2023-03-14T14:20:37;44.60;;;17.87;;
5967;SDS011;3010;51.028;4.170;2023-03-14T14:23:04;7.10;;;3.80;;
5967;SDS011;3010;51.028;4.170;2023-03-14T14:25:30;27.80;;;11.30;;
5967;SDS011;3010;51.028;4.170;2023-03-14T14:27:56;27.90;;;17.75;;
5967;SDS011;3010;51.028;4.170;2023-03-14T14:30:27;15.73;;;8.93;;
5967;SDS011;3010;51.028;4.170;2023-03-14T14:33:18;5.37;;;5.03;;
5967;SDS011;3010;51.028;4.170;2023-03-14T14:35:48;6.47;;;5.90;;
5967;SDS011;3010;51.028;4.170;2023-03-14T14:38:10;5.12;;;2.80;;
5967;SDS011;3010;51.028;4.170;2023-03-14T14:40:40;1.73;;;1.33;;
5967;SDS011;3010;51.028;4.170;2023-03-14T14:43:03;1.70;;;1.60;;
5967;SDS011;3010;51.028;4.170;2023-03-14T14:45:29;2.47;;;2.27;;
5967;SDS011;3010;51.028;4.170;2023-03-14T14:50:32;3.40;;;3.13;;
5967;SDS011;3010;51.028;4.170;2023-03-14T14:55:48;3.73;;;1.83;;
5967;SDS011;3010;51.028;4.170;2023-03-14T14:58:17;1.73;;;1.63;;
5967;SDS011;3010;51.028;4.170;2023-03-14T15:00:54;4.20;;;1.40;;
5967;SDS011;3010;51.028;4.170;2023-03-14T15:03:24;2.53;;;1.40;;
5967;SDS011;3010;51.028;4.170;2023-03-14T15:05:53;2.28;;;1.62;;
5967;SDS011;3010;51.028;4.170;2023-03-14T15:08:19;2.20;;;2.10;;
5967;SDS011;3010;51.028;4.170;2023-03-14T15:10:46;2.10;;;1.90;;
5967;SDS011;3010;51.028;4.170;2023-03-14T15:13:12;2.37;;;1.77;;
5967;SDS011;3010;51.028;4.170;2023-03-14T15:15:39;1.70;;;1.60;;
5967;SDS011;3010;51.028;4.170;2023-03-14T15:18:24;3.43;;;1.80;;
5967;SDS011;3010;51.028;4.170;2023-03-14T15:20:41;2.23;;;1.90;;
5967;SDS011;3010;51.028;4.170;2023-03-14T15:23:09;1.70;;;1.60;;
5967;SDS011;3010;51.028;4.170;2023-03-14T15:25:34;6.17;;;1.83;;
5967;SDS011;3010;51.028;4.170;2023-03-14T15:28:01;2.83;;;1.47;;
5967;SDS011;3010;51.028;4.170;2023-03-14T15:30:27;5.80;;;2.23;;
5967;SDS011;3010;51.028;4.170;2023-03-14T15:32:54;5.17;;;2.90;;
5967;SDS011;3010;51.028;4.170;2023-03-14T15:35:20;4.83;;;2.13;;
5967;SDS011;3010;51.028;4.170;2023-03-14T15:37:47;8.30;;;2.50;;
5967;SDS011;3010;51.028;4.170;2023-03-14T15:40:13;8.20;;;2.90;;
5967;SDS011;3010;51.028;4.170;2023-03-14T15:42:40;3.37;;;1.67;;
5967;SDS011;3010;51.028;4.170;2023-03-14T15:45:07;7.27;;;2.63;;
5967;SDS011;3010;51.028;4.170;2023-03-14T15:47:33;8.87;;;3.80;;
5967;SDS011;3010;51.028;4.170;2023-03-14T15:50:00;7.43;;;2.53;;
5967;SDS011;3010;51.028;4.170;2023-03-14T15:52:26;6.40;;;3.30;;
5967;SDS011;3010;51.028;4.170;2023-03-14T15:54:53;9.97;;;3.87;;
5967;SDS011;3010;51.028;4.170;2023-03-14T15:57:20;8.80;;;3.57;;
5967;SDS011;3010;51.028;4.170;2023-03-14T15:59:46;8.47;;;3.90;;
5967;SDS011;3010;51.028;4.170;2023-03-14T16:02:13;9.27;;;4.03;;
5967;SDS011;3010;51.028;4.170;2023-03-14T16:04:39;5.53;;;2.73;;
5967;SDS011;3010;51.028;4.170;2023-03-14T16:07:06;8.43;;;2.83;;
5967;SDS011;3010;51.028;4.170;2023-03-14T16:09:32;8.43;;;3.50;;
5967;SDS011;3010;51.028;4.170;2023-03-14T16:11:59;13.00;;;2.90;;
5967;SDS011;3010;51.028;4.170;2023-03-14T16:14:26;13.63;;;2.93;;
5967;SDS011;3010;51.028;4.170;2023-03-14T16:16:52;14.98;;;5.40;;
5967;SDS011;3010;51.028;4.170;2023-03-14T16:19:19;11.23;;;4.07;;